Kinston Regional Jetport At Stallings Field Kinston US
ICAO: KISO
IATA: ISO
Category: Medium
Scheduled Services: No

Elevation: 93 ft
TransAlt. 18000 ft.

Airport Communications:
SEYMOUR JOHN APP/DEP:127.3
AWOS 3:132.75
CTAF:120.6
GND:121.9
RALEIGH RDO:109.6
TWR:120.6
UNICOM:122.95

KISO Zoom In..

If you have problems with the map follow the link
https://www.worldairports.se/pages/airport.php?
ICAO=KISO

Runways:

(A) RW 05 length 11500 ft width 150 ft
ILS 111.30 / hdg 50

(B) RW 23 length 11500 ft width 150 ft
---- / hdg 230

Location; KISO
Day. 14 / Time. 20.56 Zulu
* Altimeter: 30.16
* Temperature: 13° c. 55.4°f.
* Wind from: 060° Speed 07 kn.
Dewpoint: 13° c.
Visibility: 5 Statute Miles.
Clouds: Scattered 2000 ft.
Clouds: Broken 4400 ft.
Clouds: Overcast 6000 ft.
Conditions: Light Rain.

KISO 142056Z 06007KT 5SM -RA SCT020 BKN044 OVC060 13/13 A3016


Wind From 060°
Speed 07 kn.

 
 
jpsmedia.com for Web Design worldairports.se 2018   terms of use